sensor_id;sensor_type;location;lat;lon;timestamp;temperature;humidity
20512;DHT22;10414;52.074;5.126;2024-02-26T00:01:51;6.60;99.90
20512;DHT22;10414;52.074;5.126;2024-02-26T00:04:19;6.60;99.90
20512;DHT22;10414;52.074;5.126;2024-02-26T00:06:47;6.50;99.90
20512;DHT22;10414;52.074;5.126;2024-02-26T00:09:16;6.50;99.90
20512;DHT22;10414;52.074;5.126;2024-02-26T00:11:42;6.50;99.90
20512;DHT22;10414;52.074;5.126;2024-02-26T00:14:09;6.50;99.90
20512;DHT22;10414;52.074;5.126;2024-02-26T00:16:36;6.50;99.90
20512;DHT22;10414;52.074;5.126;2024-02-26T00:19:06;6.50;99.90
20512;DHT22;10414;52.074;5.126;2024-02-26T00:21:34;6.40;99.90
20512;DHT22;10414;52.074;5.126;2024-02-26T00:24:01;6.40;99.90
20512;DHT22;10414;52.074;5.126;2024-02-26T00:26:28;6.40;99.90
20512;DHT22;10414;52.074;5.126;2024-02-26T00:28:54;6.40;99.90
20512;DHT22;10414;52.074;5.126;2024-02-26T00:31:21;6.40;99.90
20512;DHT22;10414;52.074;5.126;2024-02-26T00:33:48;6.30;99.90
20512;DHT22;10414;52.074;5.126;2024-02-26T00:36:15;6.30;99.90
20512;DHT22;10414;52.074;5.126;2024-02-26T00:38:43;6.30;99.90
20512;DHT22;10414;52.074;5.126;2024-02-26T00:41:11;6.40;99.90
20512;DHT22;10414;52.074;5.126;2024-02-26T00:43:38;6.30;99.90
20512;DHT22;10414;52.074;5.126;2024-02-26T00:46:05;6.30;99.90
20512;DHT22;10414;52.074;5.126;2024-02-26T00:48:32;6.30;99.90
20512;DHT22;10414;52.074;5.126;2024-02-26T00:50:59;6.40;99.90
20512;DHT22;10414;52.074;5.126;2024-02-26T00:53:26;6.50;99.90
20512;DHT22;10414;52.074;5.126;2024-02-26T00:55:55;6.40;99.90
20512;DHT22;10414;52.074;5.126;2024-02-26T00:58:24;6.40;99.90
20512;DHT22;10414;52.074;5.126;2024-02-26T01:00:51;6.40;99.90
20512;DHT22;10414;52.074;5.126;2024-02-26T01:03:18;6.40;99.90
20512;DHT22;10414;52.074;5.126;2024-02-26T01:05:44;6.20;99.90
20512;DHT22;10414;52.074;5.126;2024-02-26T01:08:11;6.20;99.90
20512;DHT22;10414;52.074;5.126;2024-02-26T01:10:38;6.20;99.90
20512;DHT22;10414;52.074;5.126;2024-02-26T01:13:06;6.20;99.90
20512;DHT22;10414;52.074;5.126;2024-02-26T01:15:33;6.40;99.90
20512;DHT22;10414;52.074;5.126;2024-02-26T01:18:00;6.40;99.90
20512;DHT22;10414;52.074;5.126;2024-02-26T01:20:27;6.40;99.90
20512;DHT22;10414;52.074;5.126;2024-02-26T01:22:54;6.40;99.90
20512;DHT22;10414;52.074;5.126;2024-02-26T01:25:20;6.20;99.90
20512;DHT22;10414;52.074;5.126;2024-02-26T01:27:47;6.40;99.90
20512;DHT22;10414;52.074;5.126;2024-02-26T01:30:16;6.50;99.90
20512;DHT22;10414;52.074;5.126;2024-02-26T01:32:43;6.50;99.90
20512;DHT22;10414;52.074;5.126;2024-02-26T01:35:09;6.40;99.90
20512;DHT22;10414;52.074;5.126;2024-02-26T01:37:37;6.50;99.90
20512;DHT22;10414;52.074;5.126;2024-02-26T01:40:05;6.50;99.90
20512;DHT22;10414;52.074;5.126;2024-02-26T01:42:32;6.50;99.90
20512;DHT22;10414;52.074;5.126;2024-02-26T01:44:59;6.50;99.90
20512;DHT22;10414;52.074;5.126;2024-02-26T01:47:28;6.40;99.90
20512;DHT22;10414;52.074;5.126;2024-02-26T01:49:55;6.50;99.90
20512;DHT22;10414;52.074;5.126;2024-02-26T01:52:22;6.60;99.90
20512;DHT22;10414;52.074;5.126;2024-02-26T01:54:50;6.50;99.90
20512;DHT22;10414;52.074;5.126;2024-02-26T01:57:17;6.40;99.90
20512;DHT22;10414;52.074;5.126;2024-02-26T01:59:44;6.40;99.90
20512;DHT22;10414;52.074;5.126;2024-02-26T02:02:11;6.50;99.90
20512;DHT22;10414;52.074;5.126;2024-02-26T02:04:40;6.60;99.90
20512;DHT22;10414;52.074;5.126;2024-02-26T02:07:07;6.60;99.90
20512;DHT22;10414;52.074;5.126;2024-02-26T02:09:34;6.50;99.90
20512;DHT22;10414;52.074;5.126;2024-02-26T02:12:01;6.60;99.90
20512;DHT22;10414;52.074;5.126;2024-02-26T02:14:28;6.40;99.90
20512;DHT22;10414;52.074;5.126;2024-02-26T02:16:55;6.40;99.90
20512;DHT22;10414;52.074;5.126;2024-02-26T02:19:22;6.30;99.90
20512;DHT22;10414;52.074;5.126;2024-02-26T02:21:50;6.40;99.90
20512;DHT22;10414;52.074;5.126;2024-02-26T02:24:17;6.40;99.90
20512;DHT22;10414;52.074;5.126;2024-02-26T02:26:44;6.30;99.90
20512;DHT22;10414;52.074;5.126;2024-02-26T02:29:12;6.20;99.90
20512;DHT22;10414;52.074;5.126;2024-02-26T02:31:39;6.20;99.90
20512;DHT22;10414;52.074;5.126;2024-02-26T02:34:06;6.20;99.90
20512;DHT22;10414;52.074;5.126;2024-02-26T02:36:33;6.10;99.90
20512;DHT22;10414;52.074;5.126;2024-02-26T02:39:01;6.10;99.90
20512;DHT22;10414;52.074;5.126;2024-02-26T02:41:28;6.10;99.90
20512;DHT22;10414;52.074;5.126;2024-02-26T02:43:55;6.10;99.90
20512;DHT22;10414;52.074;5.126;2024-02-26T02:46:23;6.10;99.90
20512;DHT22;10414;52.074;5.126;2024-02-26T02:48:50;6.20;99.90
20512;DHT22;10414;52.074;5.126;2024-02-26T02:51:16;6.40;99.90
20512;DHT22;10414;52.074;5.126;2024-02-26T02:53:43;6.30;99.90
20512;DHT22;10414;52.074;5.126;2024-02-26T02:56:11;6.30;99.90
20512;DHT22;10414;52.074;5.126;2024-02-26T02:58:38;6.10;99.90
20512;DHT22;10414;52.074;5.126;2024-02-26T03:01:05;6.10;99.90
20512;DHT22;10414;52.074;5.126;2024-02-26T03:03:32;6.00;99.90
20512;DHT22;10414;52.074;5.126;2024-02-26T03:05:59;6.10;99.90
20512;DHT22;10414;52.074;5.126;2024-02-26T03:08:26;6.10;99.90
20512;DHT22;10414;52.074;5.126;2024-02-26T03:10:53;6.10;99.90
20512;DHT22;10414;52.074;5.126;2024-02-26T03:13:21;6.10;99.90
20512;DHT22;10414;52.074;5.126;2024-02-26T03:15:48;6.00;99.90
20512;DHT22;10414;52.074;5.126;2024-02-26T03:18:15;6.10;99.90
20512;DHT22;10414;52.074;5.126;2024-02-26T03:20:42;6.00;99.90
20512;DHT22;10414;52.074;5.126;2024-02-26T03:23:09;6.00;99.90
20512;DHT22;10414;52.074;5.126;2024-02-26T03:25:38;6.10;99.90
20512;DHT22;10414;52.074;5.126;2024-02-26T03:28:05;6.10;99.90
20512;DHT22;10414;52.074;5.126;2024-02-26T03:30:34;6.30;99.90
20512;DHT22;10414;52.074;5.126;2024-02-26T03:33:01;6.10;99.90
20512;DHT22;10414;52.074;5.126;2024-02-26T03:35:28;6.00;99.90
20512;DHT22;10414;52.074;5.126;2024-02-26T03:37:55;6.10;99.90
20512;DHT22;10414;52.074;5.126;2024-02-26T03:40:21;6.10;99.90
20512;DHT22;10414;52.074;5.126;2024-02-26T03:42:49;6.10;99.90
20512;DHT22;10414;52.074;5.126;2024-02-26T03:45:18;6.10;99.90
20512;DHT22;10414;52.074;5.126;2024-02-26T03:47:46;6.00;99.90
20512;DHT22;10414;52.074;5.126;2024-02-26T03:50:13;5.90;99.90
20512;DHT22;10414;52.074;5.126;2024-02-26T03:52:40;6.00;99.90
20512;DHT22;10414;52.074;5.126;2024-02-26T03:55:07;6.00;99.90
20512;DHT22;10414;52.074;5.126;2024-02-26T03:57:36;6.00;99.90
20512;DHT22;10414;52.074;5.126;2024-02-26T04:00:03;6.00;99.90
20512;DHT22;10414;52.074;5.126;2024-02-26T04:02:30;6.00;99.90
20512;DHT22;10414;52.074;5.126;2024-02-26T04:04:59;6.00;99.90
20512;DHT22;10414;52.074;5.126;2024-02-26T04:07:25;6.00;99.90
20512;DHT22;10414;52.074;5.126;2024-02-26T04:09:52;6.00;99.90
20512;DHT22;10414;52.074;5.126;2024-02-26T04:12:19;6.00;99.90
20512;DHT22;10414;52.074;5.126;2024-02-26T04:14:46;6.00;99.90
20512;DHT22;10414;52.074;5.126;2024-02-26T04:17:13;6.10;99.90
20512;DHT22;10414;52.074;5.126;2024-02-26T04:19:39;6.10;99.90
20512;DHT22;10414;52.074;5.126;2024-02-26T04:22:08;6.00;99.90
20512;DHT22;10414;52.074;5.126;2024-02-26T04:24:36;6.00;99.90
20512;DHT22;10414;52.074;5.126;2024-02-26T04:27:03;6.20;99.90
20512;DHT22;10414;52.074;5.126;2024-02-26T04:29:30;6.10;99.90
20512;DHT22;10414;52.074;5.126;2024-02-26T04:31:57;6.10;99.90
20512;DHT22;10414;52.074;5.126;2024-02-26T04:34:23;6.00;99.90
20512;DHT22;10414;52.074;5.126;2024-02-26T04:36:51;5.90;99.90
20512;DHT22;10414;52.074;5.126;2024-02-26T04:39:19;5.90;99.90
20512;DHT22;10414;52.074;5.126;2024-02-26T04:41:46;6.00;99.90
20512;DHT22;10414;52.074;5.126;2024-02-26T04:44:12;6.10;99.90
20512;DHT22;10414;52.074;5.126;2024-02-26T04:46:39;6.10;99.90
20512;DHT22;10414;52.074;5.126;2024-02-26T04:49:06;6.20;99.90
20512;DHT22;10414;52.074;5.126;2024-02-26T04:51:33;6.00;99.90
20512;DHT22;10414;52.074;5.126;2024-02-26T04:54:00;5.90;99.90
20512;DHT22;10414;52.074;5.126;2024-02-26T04:56:28;5.90;99.90
20512;DHT22;10414;52.074;5.126;2024-02-26T04:58:55;6.00;99.90
20512;DHT22;10414;52.074;5.126;2024-02-26T05:01:22;6.10;99.90
20512;DHT22;10414;52.074;5.126;2024-02-26T05:03:49;6.10;99.90
20512;DHT22;10414;52.074;5.126;2024-02-26T05:06:16;6.00;99.90
20512;DHT22;10414;52.074;5.126;2024-02-26T05:08:43;6.10;99.90
20512;DHT22;10414;52.074;5.126;2024-02-26T05:11:11;6.10;99.90
20512;DHT22;10414;52.074;5.126;2024-02-26T05:13:39;6.00;99.90
20512;DHT22;10414;52.074;5.126;2024-02-26T05:16:06;6.10;99.90
20512;DHT22;10414;52.074;5.126;2024-02-26T05:18:33;6.00;99.90
20512;DHT22;10414;52.074;5.126;2024-02-26T05:21:00;5.90;99.90
20512;DHT22;10414;52.074;5.126;2024-02-26T05:23:27;5.90;99.90
20512;DHT22;10414;52.074;5.126;2024-02-26T05:25:54;5.90;99.90
20512;DHT22;10414;52.074;5.126;2024-02-26T05:28:21;5.90;99.90
20512;DHT22;10414;52.074;5.126;2024-02-26T05:30:49;5.90;99.90
20512;DHT22;10414;52.074;5.126;2024-02-26T05:33:16;5.90;99.90
20512;DHT22;10414;52.074;5.126;2024-02-26T05:35:43;6.00;99.90
20512;DHT22;10414;52.074;5.126;2024-02-26T05:38:10;6.00;99.90
20512;DHT22;10414;52.074;5.126;2024-02-26T05:40:36;5.90;99.90
20512;DHT22;10414;52.074;5.126;2024-02-26T05:43:04;5.80;99.90
20512;DHT22;10414;52.074;5.126;2024-02-26T05:45:31;5.80;99.90
20512;DHT22;10414;52.074;5.126;2024-02-26T05:47:59;5.70;99.90
20512;DHT22;10414;52.074;5.126;2024-02-26T05:50:26;5.80;99.90
20512;DHT22;10414;52.074;5.126;2024-02-26T05:52:53;5.80;99.90
20512;DHT22;10414;52.074;5.126;2024-02-26T05:55:20;5.90;99.90
20512;DHT22;10414;52.074;5.126;2024-02-26T05:57:47;5.90;99.90
20512;DHT22;10414;52.074;5.126;2024-02-26T06:00:15;5.90;99.90
20512;DHT22;10414;52.074;5.126;2024-02-26T06:02:42;5.90;99.90
20512;DHT22;10414;52.074;5.126;2024-02-26T06:05:10;5.90;99.90
20512;DHT22;10414;52.074;5.126;2024-02-26T06:07:37;5.90;99.90
20512;DHT22;10414;52.074;5.126;2024-02-26T06:10:05;5.90;99.90
20512;DHT22;10414;52.074;5.126;2024-02-26T06:12:35;5.80;99.90
20512;DHT22;10414;52.074;5.126;2024-02-26T06:15:02;5.90;99.90
20512;DHT22;10414;52.074;5.126;2024-02-26T06:17:29;6.00;99.90
20512;DHT22;10414;52.074;5.126;2024-02-26T06:19:56;5.90;99.90
20512;DHT22;10414;52.074;5.126;2024-02-26T06:22:26;5.90;99.90
20512;DHT22;10414;52.074;5.126;2024-02-26T06:24:53;5.70;99.90
20512;DHT22;10414;52.074;5.126;2024-02-26T06:27:19;5.70;99.90
20512;DHT22;10414;52.074;5.126;2024-02-26T06:29:47;5.80;99.90
20512;DHT22;10414;52.074;5.126;2024-02-26T06:32:14;5.80;99.90
20512;DHT22;10414;52.074;5.126;2024-02-26T06:34:40;5.80;99.90
20512;DHT22;10414;52.074;5.126;2024-02-26T06:37:08;5.90;99.90
20512;DHT22;10414;52.074;5.126;2024-02-26T06:39:36;5.80;99.90
20512;DHT22;10414;52.074;5.126;2024-02-26T06:42:04;5.80;99.90
20512;DHT22;10414;52.074;5.126;2024-02-26T06:44:31;5.80;99.90
20512;DHT22;10414;52.074;5.126;2024-02-26T06:46:58;5.90;99.90
20512;DHT22;10414;52.074;5.126;2024-02-26T06:49:25;6.00;99.90
20512;DHT22;10414;52.074;5.126;2024-02-26T06:51:52;5.80;99.90
20512;DHT22;10414;52.074;5.126;2024-02-26T06:54:19;5.80;99.90
20512;DHT22;10414;52.074;5.126;2024-02-26T06:56:47;5.80;99.90
20512;DHT22;10414;52.074;5.126;2024-02-26T06:59:14;5.80;99.90
20512;DHT22;10414;52.074;5.126;2024-02-26T07:01:41;5.80;99.90
20512;DHT22;10414;52.074;5.126;2024-02-26T07:04:08;5.70;99.90
20512;DHT22;10414;52.074;5.126;2024-02-26T07:06:36;5.80;99.90
20512;DHT22;10414;52.074;5.126;2024-02-26T07:09:03;5.80;99.90
20512;DHT22;10414;52.074;5.126;2024-02-26T07:11:30;5.80;99.90
20512;DHT22;10414;52.074;5.126;2024-02-26T07:13:58;5.80;99.90
20512;DHT22;10414;52.074;5.126;2024-02-26T07:16:26;5.80;99.90
20512;DHT22;10414;52.074;5.126;2024-02-26T07:18:53;5.80;99.90
20512;DHT22;10414;52.074;5.126;2024-02-26T07:21:20;5.80;99.90
20512;DHT22;10414;52.074;5.126;2024-02-26T07:23:47;5.80;99.90
20512;DHT22;10414;52.074;5.126;2024-02-26T07:26:14;5.70;99.90
20512;DHT22;10414;52.074;5.126;2024-02-26T07:28:40;5.70;99.90
20512;DHT22;10414;52.074;5.126;2024-02-26T07:31:09;5.80;99.90
20512;DHT22;10414;52.074;5.126;2024-02-26T07:33:35;5.90;99.90
20512;DHT22;10414;52.074;5.126;2024-02-26T07:36:03;5.70;99.90
20512;DHT22;10414;52.074;5.126;2024-02-26T07:38:30;5.70;99.90
20512;DHT22;10414;52.074;5.126;2024-02-26T07:40:57;5.70;99.90
20512;DHT22;10414;52.074;5.126;2024-02-26T07:43:23;5.80;99.90
20512;DHT22;10414;52.074;5.126;2024-02-26T07:45:51;5.70;99.90
20512;DHT22;10414;52.074;5.126;2024-02-26T07:48:19;5.70;99.90
20512;DHT22;10414;52.074;5.126;2024-02-26T07:50:46;5.80;99.90
20512;DHT22;10414;52.074;5.126;2024-02-26T07:53:13;6.10;99.90
20512;DHT22;10414;52.074;5.126;2024-02-26T07:55:40;5.90;99.90
20512;DHT22;10414;52.074;5.126;2024-02-26T07:58:07;5.80;99.90
20512;DHT22;10414;52.074;5.126;2024-02-26T08:00:34;5.90;99.90
20512;DHT22;10414;52.074;5.126;2024-02-26T08:03:01;5.90;99.90
20512;DHT22;10414;52.074;5.126;2024-02-26T08:05:30;6.00;99.90
20512;DHT22;10414;52.074;5.126;2024-02-26T08:07:57;6.00;99.90
20512;DHT22;10414;52.074;5.126;2024-02-26T08:10:23;6.00;99.90
20512;DHT22;10414;52.074;5.126;2024-02-26T08:12:50;6.10;99.90
20512;DHT22;10414;52.074;5.126;2024-02-26T08:15:17;6.10;99.90
20512;DHT22;10414;52.074;5.126;2024-02-26T08:17:44;5.90;99.90
20512;DHT22;10414;52.074;5.126;2024-02-26T08:20:13;5.80;99.90
20512;DHT22;10414;52.074;5.126;2024-02-26T08:22:41;5.90;99.90
20512;DHT22;10414;52.074;5.126;2024-02-26T08:25:09;6.00;99.90
20512;DHT22;10414;52.074;5.126;2024-02-26T08:27:36;6.10;99.90
20512;DHT22;10414;52.074;5.126;2024-02-26T08:30:03;6.20;99.90
20512;DHT22;10414;52.074;5.126;2024-02-26T08:32:30;6.20;99.90
20512;DHT22;10414;52.074;5.126;2024-02-26T08:34:57;6.00;99.90
20512;DHT22;10414;52.074;5.126;2024-02-26T08:37:24;5.90;99.90
20512;DHT22;10414;52.074;5.126;2024-02-26T08:39:52;5.90;99.90
20512;DHT22;10414;52.074;5.126;2024-02-26T08:42:19;5.90;99.90
20512;DHT22;10414;52.074;5.126;2024-02-26T08:44:46;5.90;99.90
20512;DHT22;10414;52.074;5.126;2024-02-26T08:47:13;6.10;99.90
20512;DHT22;10414;52.074;5.126;2024-02-26T08:49:42;6.10;99.90
20512;DHT22;10414;52.074;5.126;2024-02-26T08:52:09;6.10;99.90
20512;DHT22;10414;52.074;5.126;2024-02-26T08:54:36;6.10;99.90
20512;DHT22;10414;52.074;5.126;2024-02-26T08:57:05;6.20;99.90
20512;DHT22;10414;52.074;5.126;2024-02-26T08:59:32;6.10;99.90
20512;DHT22;10414;52.074;5.126;2024-02-26T09:01:59;6.00;99.90
20512;DHT22;10414;52.074;5.126;2024-02-26T09:04:25;6.00;99.90
20512;DHT22;10414;52.074;5.126;2024-02-26T09:06:53;6.10;99.90
20512;DHT22;10414;52.074;5.126;2024-02-26T09:09:20;6.20;99.90
20512;DHT22;10414;52.074;5.126;2024-02-26T09:11:47;6.10;99.90
20512;DHT22;10414;52.074;5.126;2024-02-26T09:14:18;6.00;99.90
20512;DHT22;10414;52.074;5.126;2024-02-26T09:16:45;6.10;99.90
20512;DHT22;10414;52.074;5.126;2024-02-26T09:19:13;6.10;99.90
20512;DHT22;10414;52.074;5.126;2024-02-26T09:21:42;6.10;99.90
20512;DHT22;10414;52.074;5.126;2024-02-26T09:24:09;6.10;99.90
20512;DHT22;10414;52.074;5.126;2024-02-26T09:26:36;6.20;99.90
20512;DHT22;10414;52.074;5.126;2024-02-26T09:29:03;6.20;99.90
20512;DHT22;10414;52.074;5.126;2024-02-26T09:31:32;6.20;99.90
20512;DHT22;10414;52.074;5.126;2024-02-26T09:33:59;6.10;99.90
20512;DHT22;10414;52.074;5.126;2024-02-26T09:36:26;6.10;99.90
20512;DHT22;10414;52.074;5.126;2024-02-26T09:38:53;6.20;99.90
20512;DHT22;10414;52.074;5.126;2024-02-26T09:41:20;6.10;99.90
20512;DHT22;10414;52.074;5.126;2024-02-26T09:43:48;6.20;99.90
20512;DHT22;10414;52.074;5.126;2024-02-26T09:46:19;6.20;99.90
20512;DHT22;10414;52.074;5.126;2024-02-26T09:48:47;6.10;99.90
20512;DHT22;10414;52.074;5.126;2024-02-26T09:51:15;6.00;99.90
20512;DHT22;10414;52.074;5.126;2024-02-26T09:53:43;6.00;99.90
20512;DHT22;10414;52.074;5.126;2024-02-26T09:56:11;6.00;99.90
20512;DHT22;10414;52.074;5.126;2024-02-26T09:58:39;5.90;99.90
20512;DHT22;10414;52.074;5.126;2024-02-26T10:01:11;5.90;99.90
20512;DHT22;10414;52.074;5.126;2024-02-26T10:03:41;6.20;99.90
20512;DHT22;10414;52.074;5.126;2024-02-26T10:06:11;5.90;99.90
20512;DHT22;10414;52.074;5.126;2024-02-26T10:08:38;5.90;99.90
20512;DHT22;10414;52.074;5.126;2024-02-26T10:11:07;6.00;99.90
20512;DHT22;10414;52.074;5.126;2024-02-26T10:13:34;5.90;99.90
20512;DHT22;10414;52.074;5.126;2024-02-26T10:16:02;5.90;99.90
20512;DHT22;10414;52.074;5.126;2024-02-26T10:18:45;5.90;99.90
20512;DHT22;10414;52.074;5.126;2024-02-26T10:21:13;5.90;99.90
20512;DHT22;10414;52.074;5.126;2024-02-26T10:23:43;6.00;99.90
20512;DHT22;10414;52.074;5.126;2024-02-26T10:26:11;6.00;99.90
20512;DHT22;10414;52.074;5.126;2024-02-26T10:28:39;5.90;99.90
20512;DHT22;10414;52.074;5.126;2024-02-26T10:31:06;6.30;99.90
20512;DHT22;10414;52.074;5.126;2024-02-26T10:33:33;6.10;99.90
20512;DHT22;10414;52.074;5.126;2024-02-26T10:36:01;6.00;99.90
20512;DHT22;10414;52.074;5.126;2024-02-26T10:38:29;6.10;99.90
20512;DHT22;10414;52.074;5.126;2024-02-26T10:40:56;6.10;99.90
20512;DHT22;10414;52.074;5.126;2024-02-26T10:43:24;6.10;99.90
20512;DHT22;10414;52.074;5.126;2024-02-26T10:45:51;6.10;99.90
20512;DHT22;10414;52.074;5.126;2024-02-26T10:48:18;6.20;99.90
20512;DHT22;10414;52.074;5.126;2024-02-26T10:50:46;6.20;99.90
20512;DHT22;10414;52.074;5.126;2024-02-26T10:53:17;6.20;99.90
20512;DHT22;10414;52.074;5.126;2024-02-26T10:55:49;6.10;99.90
20512;DHT22;10414;52.074;5.126;2024-02-26T10:58:19;6.10;99.90
20512;DHT22;10414;52.074;5.126;2024-02-26T11:00:48;6.10;99.90
20512;DHT22;10414;52.074;5.126;2024-02-26T11:03:15;6.20;99.90
20512;DHT22;10414;52.074;5.126;2024-02-26T11:05:46;6.00;99.90
20512;DHT22;10414;52.074;5.126;2024-02-26T11:08:14;6.20;99.90
20512;DHT22;10414;52.074;5.126;2024-02-26T11:10:42;6.20;99.90
20512;DHT22;10414;52.074;5.126;2024-02-26T11:13:12;6.20;99.90
20512;DHT22;10414;52.074;5.126;2024-02-26T11:15:40;6.20;99.90
20512;DHT22;10414;52.074;5.126;2024-02-26T11:18:08;6.30;99.90
20512;DHT22;10414;52.074;5.126;2024-02-26T11:20:38;6.40;99.90
20512;DHT22;10414;52.074;5.126;2024-02-26T11:23:07;6.50;99.90
20512;DHT22;10414;52.074;5.126;2024-02-26T11:25:34;6.70;99.90
20512;DHT22;10414;52.074;5.126;2024-02-26T11:28:05;6.40;99.90
20512;DHT22;10414;52.074;5.126;2024-02-26T11:30:36;6.50;99.90
20512;DHT22;10414;52.074;5.126;2024-02-26T11:33:06;6.60;99.90
20512;DHT22;10414;52.074;5.126;2024-02-26T11:35:34;6.80;99.90
20512;DHT22;10414;52.074;5.126;2024-02-26T11:38:03;6.80;99.90
20512;DHT22;10414;52.074;5.126;2024-02-26T11:40:33;6.90;99.90
20512;DHT22;10414;52.074;5.126;2024-02-26T11:43:00;6.80;99.90
20512;DHT22;10414;52.074;5.126;2024-02-26T11:45:50;6.70;99.90
20512;DHT22;10414;52.074;5.126;2024-02-26T11:48:20;6.60;99.90
20512;DHT22;10414;52.074;5.126;2024-02-26T11:50:48;6.60;99.90
20512;DHT22;10414;52.074;5.126;2024-02-26T11:53:26;6.60;99.90
20512;DHT22;10414;52.074;5.126;2024-02-26T11:56:12;6.60;99.90
20512;DHT22;10414;52.074;5.126;2024-02-26T11:58:39;6.70;99.90
20512;DHT22;10414;52.074;5.126;2024-02-26T12:01:38;6.60;99.90
20512;DHT22;10414;52.074;5.126;2024-02-26T12:04:07;6.40;99.90
20512;DHT22;10414;52.074;5.126;2024-02-26T12:06:41;6.50;99.90
20512;DHT22;10414;52.074;5.126;2024-02-26T12:09:08;6.60;99.90
20512;DHT22;10414;52.074;5.126;2024-02-26T12:11:37;6.60;99.90
20512;DHT22;10414;52.074;5.126;2024-02-26T12:14:07;6.60;99.90
20512;DHT22;10414;52.074;5.126;2024-02-26T12:16:39;6.40;99.90
20512;DHT22;10414;52.074;5.126;2024-02-26T12:19:09;6.30;99.90
20512;DHT22;10414;52.074;5.126;2024-02-26T12:21:37;6.40;99.90
20512;DHT22;10414;52.074;5.126;2024-02-26T12:24:11;6.40;99.90
20512;DHT22;10414;52.074;5.126;2024-02-26T12:26:39;6.50;99.90
20512;DHT22;10414;52.074;5.126;2024-02-26T12:29:06;6.60;99.90
20512;DHT22;10414;52.074;5.126;2024-02-26T12:31:33;6.50;99.90
20512;DHT22;10414;52.074;5.126;2024-02-26T12:34:04;6.60;99.90
20512;DHT22;10414;52.074;5.126;2024-02-26T12:36:32;6.60;99.90
20512;DHT22;10414;52.074;5.126;2024-02-26T12:39:00;6.50;99.90
20512;DHT22;10414;52.074;5.126;2024-02-26T12:41:27;6.60;99.90
20512;DHT22;10414;52.074;5.126;2024-02-26T12:43:55;6.70;99.90
20512;DHT22;10414;52.074;5.126;2024-02-26T12:46:22;6.70;99.90
20512;DHT22;10414;52.074;5.126;2024-02-26T12:48:49;6.80;99.90
20512;DHT22;10414;52.074;5.126;2024-02-26T12:51:17;6.60;99.90
20512;DHT22;10414;52.074;5.126;2024-02-26T12:53:45;6.60;99.90
20512;DHT22;10414;52.074;5.126;2024-02-26T12:56:12;6.70;99.90
20512;DHT22;10414;52.074;5.126;2024-02-26T12:58:40;6.80;99.90
20512;DHT22;10414;52.074;5.126;2024-02-26T13:01:07;6.80;99.90
20512;DHT22;10414;52.074;5.126;2024-02-26T13:03:40;6.90;99.90
20512;DHT22;10414;52.074;5.126;2024-02-26T13:06:08;7.00;99.90
20512;DHT22;10414;52.074;5.126;2024-02-26T13:08:37;7.00;99.90
20512;DHT22;10414;52.074;5.126;2024-02-26T13:11:04;7.20;99.90
20512;DHT22;10414;52.074;5.126;2024-02-26T13:13:31;7.30;99.90
20512;DHT22;10414;52.074;5.126;2024-02-26T13:16:02;7.20;99.90
20512;DHT22;10414;52.074;5.126;2024-02-26T13:18:30;7.00;99.90
20512;DHT22;10414;52.074;5.126;2024-02-26T13:21:07;7.20;99.90
20512;DHT22;10414;52.074;5.126;2024-02-26T13:23:35;7.30;99.90
20512;DHT22;10414;52.074;5.126;2024-02-26T13:26:03;7.10;99.90
20512;DHT22;10414;52.074;5.126;2024-02-26T13:28:30;7.00;99.90
20512;DHT22;10414;52.074;5.126;2024-02-26T13:30:58;6.80;99.90
20512;DHT22;10414;52.074;5.126;2024-02-26T13:33:27;6.90;99.90
20512;DHT22;10414;52.074;5.126;2024-02-26T13:35:54;6.90;99.90
20512;DHT22;10414;52.074;5.126;2024-02-26T13:38:21;6.80;99.90
20512;DHT22;10414;52.074;5.126;2024-02-26T13:40:49;6.90;99.90
20512;DHT22;10414;52.074;5.126;2024-02-26T13:43:18;7.00;99.90
20512;DHT22;10414;52.074;5.126;2024-02-26T13:45:45;6.80;99.90
20512;DHT22;10414;52.074;5.126;2024-02-26T13:48:13;6.90;99.90
20512;DHT22;10414;52.074;5.126;2024-02-26T13:50:41;6.90;99.90
20512;DHT22;10414;52.074;5.126;2024-02-26T13:53:10;7.10;99.90
20512;DHT22;10414;52.074;5.126;2024-02-26T13:55:39;7.20;99.90
20512;DHT22;10414;52.074;5.126;2024-02-26T13:58:08;7.10;99.90
20512;DHT22;10414;52.074;5.126;2024-02-26T14:00:36;7.10;99.90
20512;DHT22;10414;52.074;5.126;2024-02-26T14:03:03;7.30;99.90
20512;DHT22;10414;52.074;5.126;2024-02-26T14:05:31;7.40;99.90
20512;DHT22;10414;52.074;5.126;2024-02-26T14:07:58;7.50;99.90
20512;DHT22;10414;52.074;5.126;2024-02-26T14:10:24;7.40;99.90
20512;DHT22;10414;52.074;5.126;2024-02-26T14:12:51;7.30;99.90
20512;DHT22;10414;52.074;5.126;2024-02-26T14:15:18;7.30;99.90
20512;DHT22;10414;52.074;5.126;2024-02-26T14:17:47;7.20;99.90
20512;DHT22;10414;52.074;5.126;2024-02-26T14:20:19;7.30;99.90
20512;DHT22;10414;52.074;5.126;2024-02-26T14:22:46;7.30;99.90
20512;DHT22;10414;52.074;5.126;2024-02-26T14:25:13;7.50;99.90
20512;DHT22;10414;52.074;5.126;2024-02-26T14:27:40;7.40;99.90
20512;DHT22;10414;52.074;5.126;2024-02-26T14:30:07;7.50;99.90
20512;DHT22;10414;52.074;5.126;2024-02-26T14:32:34;7.40;99.90
20512;DHT22;10414;52.074;5.126;2024-02-26T14:35:05;7.30;99.90
20512;DHT22;10414;52.074;5.126;2024-02-26T14:37:33;7.50;99.90
20512;DHT22;10414;52.074;5.126;2024-02-26T14:40:00;7.40;99.90
20512;DHT22;10414;52.074;5.126;2024-02-26T14:42:28;7.30;99.90
20512;DHT22;10414;52.074;5.126;2024-02-26T14:44:55;7.30;99.90
20512;DHT22;10414;52.074;5.126;2024-02-26T14:47:22;7.50;99.90
20512;DHT22;10414;52.074;5.126;2024-02-26T14:49:48;7.60;99.90
20512;DHT22;10414;52.074;5.126;2024-02-26T14:52:18;7.50;99.90
20512;DHT22;10414;52.074;5.126;2024-02-26T14:54:45;7.40;99.90
20512;DHT22;10414;52.074;5.126;2024-02-26T14:57:12;7.50;99.90
20512;DHT22;10414;52.074;5.126;2024-02-26T14:59:39;7.40;99.90
20512;DHT22;10414;52.074;5.126;2024-02-26T15:02:06;7.50;99.90
20512;DHT22;10414;52.074;5.126;2024-02-26T15:04:35;7.40;99.90
20512;DHT22;10414;52.074;5.126;2024-02-26T15:07:02;7.40;99.90
20512;DHT22;10414;52.074;5.126;2024-02-26T15:09:31;7.30;99.90
20512;DHT22;10414;52.074;5.126;2024-02-26T15:11:57;7.50;99.90
20512;DHT22;10414;52.074;5.126;2024-02-26T15:14:24;7.50;99.90
20512;DHT22;10414;52.074;5.126;2024-02-26T15:16:52;7.60;99.90
20512;DHT22;10414;52.074;5.126;2024-02-26T15:19:19;7.60;99.90
20512;DHT22;10414;52.074;5.126;2024-02-26T15:21:46;7.60;99.90
20512;DHT22;10414;52.074;5.126;2024-02-26T15:24:13;7.70;99.90
20512;DHT22;10414;52.074;5.126;2024-02-26T15:26:43;7.50;99.90
20512;DHT22;10414;52.074;5.126;2024-02-26T15:29:10;7.50;99.90
20512;DHT22;10414;52.074;5.126;2024-02-26T15:31:37;7.60;99.90
20512;DHT22;10414;52.074;5.126;2024-02-26T15:34:04;7.60;99.90
20512;DHT22;10414;52.074;5.126;2024-02-26T15:36:31;7.50;99.90
20512;DHT22;10414;52.074;5.126;2024-02-26T15:38:58;7.50;99.90
20512;DHT22;10414;52.074;5.126;2024-02-26T15:41:25;7.70;99.90
20512;DHT22;10414;52.074;5.126;2024-02-26T15:43:53;7.60;99.90
20512;DHT22;10414;52.074;5.126;2024-02-26T15:46:20;7.40;99.90
20512;DHT22;10414;52.074;5.126;2024-02-26T15:48:47;7.30;99.90